Time;durP1;ratioP1;P1;durP2;ratioP2;P2;SDS_P1;SDS_P2;PMS_P1;PMS_P2;Temp;Humidity;BMP_temperature;BMP_pressure;BME280_temperature;BME280_humidity;BME280_pressure;Samples;Min_cycle;Max_cycle;Signal;HPM_P1;HPM_P2
2022/06/03 00:00:43;;;;;;;0.00;0.00;;;;;;;10.08;98.61;100980.75;5073171;28;20249;-77
2022/06/03 00:03:09;;;;;;;0.00;0.00;;;;;;;9.96;98.19;100974.91;5072591;28;20162;-76
2022/06/03 00:05:46;;;;;;;0.00;0.00;;;;;;;9.79;98.24;100986.31;5072574;28;20649;-77
2022/06/03 00:08:36;;;;;;;0.00;0.00;;;;;;;9.61;98.78;100983.56;5072140;28;20170;-77
2022/06/03 00:11:20;;;;;;;0.00;0.00;;;;;;;9.52;100.00;100984.19;5072722;28;20286;-74
2022/06/03 00:14:07;;;;;;;0.00;0.00;;;;;;;9.54;100.00;100981.97;5072535;28;20170;-76
2022/06/03 00:17:04;;;;;;;0.07;0.07;;;;;;;9.52;100.00;100976.00;5072672;28;20183;-74
2022/06/03 00:19:48;;;;;;;0.00;0.00;;;;;;;9.48;100.00;100983.16;5057392;28;20596;-78
2022/06/03 00:22:31;;;;;;;0.00;0.00;;;;;;;9.39;100.00;100984.06;5072451;28;20166;-77
2022/06/03 00:25:12;;;;;;;0.00;0.00;;;;;;;9.32;100.00;100989.09;5072169;28;20166;-76
2022/06/03 00:27:44;;;;;;;0.00;0.00;;;;;;;9.36;100.00;100982.75;5071447;28;20626;-72
2022/06/03 00:30:37;;;;;;;0.00;0.00;;;;;;;9.34;100.00;100984.16;5072285;28;20170;-74
2022/06/03 00:33:17;;;;;;;0.00;0.00;;;;;;;9.37;100.00;100984.38;5072102;28;20669;-75
2022/06/03 00:35:45;;;;;;;0.00;0.00;;;;;;;9.34;100.00;100987.69;5072160;28;20171;-74
2022/06/03 00:38:34;;;;;;;0.00;0.00;;;;;;;9.51;100.00;100985.31;5071687;28;20385;-75
2022/06/03 00:41:11;;;;;;;0.00;0.00;;;;;;;9.59;100.00;100985.78;5072068;28;20531;-77
2022/06/03 00:44:01;;;;;;;0.00;0.00;;;;;;;9.61;100.00;100973.47;5071708;28;20166;-75
2022/06/03 00:46:58;;;;;;;0.00;0.00;;;;;;;9.65;100.00;100973.69;5071849;28;20265;-77
2022/06/03 00:49:33;;;;;;;0.00;0.00;;;;;;;9.47;100.00;100964.34;5071349;28;20186;-74
2022/06/03 00:52:09;;;;;;;0.03;0.03;;;;;;;9.38;100.00;100972.34;5071594;28;20175;-76
2022/06/03 00:54:48;;;;;;;0.00;0.00;;;;;;;9.29;100.00;100968.66;5071682;28;20175;-75
2022/06/03 00:57:54;;;;;;;0.00;0.00;;;;;;;9.24;100.00;100965.97;5071293;28;20225;-73
2022/06/03 01:00:24;;;;;;;0.00;0.00;;;;;;;9.22;100.00;100970.91;5071588;28;20661;-75
2022/06/03 01:03:14;;;;;;;0.00;0.00;;;;;;;9.14;100.00;100961.47;5071972;28;20253;-73
2022/06/03 01:06:14;;;;;;;0.57;0.57;;;;;;;9.10;100.00;100965.03;5071442;28;20194;-73
2022/06/03 01:09:04;;;;;;;0.00;0.00;;;;;;;9.12;100.00;100962.84;5071013;28;20528;-72
2022/06/03 01:11:50;;;;;;;0.00;0.00;;;;;;;9.07;100.00;100949.25;5071486;28;20607;-75
2022/06/03 01:14:41;;;;;;;0.00;0.00;;;;;;;8.94;100.00;100954.28;5071310;28;20178;-74
2022/06/03 01:17:25;;;;;;;0.00;0.00;;;;;;;8.75;100.00;100956.13;5070786;28;20198;-75
2022/06/03 01:20:08;;;;;;;0.00;0.00;;;;;;;8.64;100.00;100958.13;5071592;28;20634;-73
2022/06/03 01:22:56;;;;;;;0.00;0.00;;;;;;;8.57;100.00;100954.09;5071349;28;20573;-76
2022/06/03 01:25:35;;;;;;;0.00;0.00;;;;;;;8.59;100.00;100954.63;5071250;28;20359;-78
2022/06/03 01:28:37;;;;;;;0.00;0.00;;;;;;;8.62;100.00;100951.31;5070592;28;20174;-74
2022/06/03 01:31:23;;;;;;;0.00;0.00;;;;;;;8.59;100.00;100949.19;5071085;28;20209;-73
2022/06/03 01:34:12;;;;;;;0.00;0.00;;;;;;;8.55;100.00;100945.41;5070982;28;20198;-73
2022/06/03 01:37:29;;;;;;;0.00;0.00;;;;;;;8.50;100.00;100945.44;5070850;28;20248;-73
2022/06/03 01:40:16;;;;;;;0.00;0.00;;;;;;;8.45;100.00;100942.75;5054608;28;20187;-72
2022/06/03 01:42:56;;;;;;;0.00;0.00;;;;;;;8.47;100.00;100957.72;5070940;28;20163;-71
2022/06/03 01:46:01;;;;;;;0.00;0.00;;;;;;;8.45;100.00;100950.94;5070854;28;20193;-73
2022/06/03 01:48:52;;;;;;;0.00;0.00;;;;;;;8.42;100.00;100949.59;5070914;28;20166;-75
2022/06/03 01:51:36;;;;;;;0.00;0.00;;;;;;;8.37;100.00;100946.09;5070909;28;20194;-74
2022/06/03 01:54:33;;;;;;;0.00;0.00;;;;;;;8.40;100.00;100946.34;5070311;28;20167;-74
2022/06/03 01:56:58;;;;;;;0.00;0.00;;;;;;;8.38;100.00;100931.38;5070599;28;20162;-72
2022/06/03 01:59:59;;;;;;;0.00;0.00;;;;;;;8.31;100.00;100932.50;5070627;28;20174;-76
2022/06/03 02:02:50;;;;;;;0.00;0.00;;;;;;;8.32;100.00;100946.91;5070797;28;20181;-77
2022/06/03 02:05:34;;;;;;;0.00;0.00;;;;;;;8.35;100.00;100939.00;5069075;28;20174;-78
2022/06/03 02:08:11;;;;;;;0.00;0.00;;;;;;;8.45;100.00;100937.31;5068780;28;20171;-79
2022/06/03 02:10:54;;;;;;;0.00;0.00;;;;;;;8.37;100.00;100946.91;5070662;28;20163;-75
2022/06/03 02:13:58;;;;;;;0.00;0.00;;;;;;;8.30;100.00;100944.47;5070977;28;20208;-77
2022/06/03 02:16:44;;;;;;;0.10;0.10;;;;;;;8.23;100.00;100949.41;5049022;28;20193;-78
2022/06/03 02:19:41;;;;;;;0.00;0.00;;;;;;;8.19;100.00;100945.66;5070678;28;20209;-74
2022/06/03 02:22:34;;;;;;;0.00;0.00;;;;;;;8.19;100.00;100947.56;5070982;28;20197;-75
2022/06/03 02:25:22;;;;;;;0.00;0.00;;;;;;;8.21;100.00;100943.44;5070431;28;20174;-77
2022/06/03 02:27:57;;;;;;;0.00;0.00;;;;;;;8.16;100.00;100943.50;5070240;28;20228;-76
2022/06/03 02:30:41;;;;;;;0.00;0.00;;;;;;;8.07;100.00;100943.25;5070061;28;20246;-72
2022/06/03 02:33:41;;;;;;;0.00;0.00;;;;;;;7.97;100.00;100943.34;5067315;28;20210;-75
2022/06/03 02:36:21;;;;;;;0.00;0.00;;;;;;;7.87;100.00;100943.41;5069464;28;20186;-76
2022/06/03 02:39:12;;;;;;;0.10;0.10;;;;;;;7.86;100.00;100943.69;5069048;28;20272;-76
2022/06/03 02:42:01;;;;;;;0.00;0.00;;;;;;;7.83;100.00;100947.78;5069801;28;20528;-76
2022/06/03 02:44:59;;;;;;;0.00;0.00;;;;;;;7.80;100.00;100947.50;5070867;28;20209;-75
2022/06/03 02:47:43;;;;;;;0.00;0.00;;;;;;;7.86;100.00;100949.13;5070607;28;20163;-80
2022/06/03 02:50:42;;;;;;;0.00;0.00;;;;;;;7.78;100.00;100934.19;5070750;28;20166;-77
2022/06/03 02:53:57;;;;;;;0.00;0.00;;;;;;;7.65;100.00;100940.25;5070951;28;20201;-79
2022/06/03 02:56:31;;;;;;;0.00;0.00;;;;;;;7.64;100.00;100936.72;5070392;28;20178;-79
2022/06/03 02:59:24;;;;;;;0.50;0.47;;;;;;;7.65;100.00;100937.53;5070367;28;20198;-76
2022/06/03 03:02:17;;;;;;;0.00;0.00;;;;;;;7.73;100.00;100932.31;5070593;28;20257;-72
2022/06/03 03:04:42;;;;;;;0.00;0.00;;;;;;;7.75;100.00;100935.56;5070480;28;20549;-75
2022/06/03 03:07:42;;;;;;;0.00;0.00;;;;;;;7.82;100.00;100939.91;5073575;28;20171;-74
2022/06/03 03:10:28;;;;;;;0.00;0.00;;;;;;;7.77;100.00;100946.16;5073798;28;20261;-77
2022/06/03 03:13:08;;;;;;;0.00;0.00;;;;;;;7.73;100.00;100948.66;5073719;28;20170;-73
2022/06/03 03:15:46;;;;;;;0.00;0.00;;;;;;;7.79;100.00;100943.16;5073655;28;20235;-76
2022/06/03 03:18:21;;;;;;;0.00;0.00;;;;;;;7.84;100.00;100935.81;5072845;28;20198;-76
2022/06/03 03:21:24;;;;;;;0.00;0.00;;;;;;;7.78;100.00;100934.19;5073378;28;20162;-72
2022/06/03 03:24:26;;;;;;;0.00;0.00;;;;;;;7.65;100.00;100938.34;5030854;28;20932;-76
2022/06/03 03:27:11;;;;;;;0.00;0.00;;;;;;;7.70;100.00;100930.19;5073353;28;20489;-72
2022/06/03 03:29:43;;;;;;;0.00;0.00;;;;;;;7.87;100.00;100937.16;5072904;28;20247;-74
2022/06/03 03:32:46;;;;;;;0.00;0.00;;;;;;;7.83;100.00;100938.81;5073978;28;20503;-74
2022/06/03 03:35:28;;;;;;;0.00;0.00;;;;;;;7.73;100.00;100937.75;5073284;28;20181;-75
2022/06/03 03:38:12;;;;;;;0.00;0.00;;;;;;;7.81;100.00;100946.41;5072633;28;20226;-73
2022/06/03 03:41:18;;;;;;;0.00;0.00;;;;;;;7.83;100.00;100936.91;5073259;28;20178;-74
2022/06/03 03:44:05;;;;;;;0.00;0.00;;;;;;;7.88;100.00;100946.94;5072918;28;20198;-72
2022/06/03 03:46:43;;;;;;;0.00;0.00;;;;;;;7.76;100.00;100958.16;5072770;28;20174;-77
2022/06/03 03:49:17;;;;;;;0.00;0.00;;;;;;;7.75;100.00;100953.81;5072739;28;20171;-76
2022/06/03 03:52:03;;;;;;;0.00;0.00;;;;;;;7.83;100.00;100945.06;5073065;28;20182;-73
2022/06/03 03:54:42;;;;;;;0.00;0.00;;;;;;;7.91;100.00;100947.19;5073031;28;20603;-73
2022/06/03 03:57:35;;;;;;;0.00;0.00;;;;;;;8.01;100.00;100949.03;5072618;28;20531;-79
2022/06/03 04:00:27;;;;;;;0.00;0.00;;;;;;;8.20;100.00;100941.81;5073013;28;20518;-75
2022/06/03 04:03:26;;;;;;;0.00;0.00;;;;;;;8.30;100.00;100947.19;5072915;28;20607;-79
2022/06/03 04:06:29;;;;;;;0.00;0.00;;;;;;;8.38;100.00;100951.25;5072855;28;20175;-74
2022/06/03 04:09:23;;;;;;;0.00;0.00;;;;;;;8.52;100.00;100938.59;5071883;28;20228;-77
2022/06/03 04:12:06;;;;;;;0.00;0.00;;;;;;;8.66;100.00;100936.03;5072725;28;20212;-74
2022/06/03 04:15:00;;;;;;;0.00;0.00;;;;;;;8.70;100.00;100933.56;5072601;28;20614;-74
2022/06/03 04:18:02;;;;;;;0.00;0.00;;;;;;;8.59;100.00;100927.41;5071345;28;20248;-77
2022/06/03 04:21:04;;;;;;;0.00;0.00;;;;;;;8.61;100.00;100936.09;5072545;28;20174;-75
2022/06/03 04:23:44;;;;;;;0.00;0.00;;;;;;;8.70;100.00;100936.28;5029744;28;20183;-78
2022/06/03 04:26:47;;;;;;;0.00;0.00;;;;;;;8.69;100.00;100940.94;5068173;28;20259;-74
2022/06/03 04:29:37;;;;;;;0.00;0.00;;;;;;;8.87;100.00;100945.66;5071853;28;20182;-75
2022/06/03 04:32:43;;;;;;;0.00;0.00;;;;;;;8.94;100.00;100946.13;5072133;28;20237;-73
2022/06/03 04:35:42;;;;;;;0.00;0.00;;;;;;;9.08;100.00;100948.16;5072043;28;20267;-76
2022/06/03 04:38:32;;;;;;;0.00;0.00;;;;;;;9.13;100.00;100942.69;5070102;28;20586;-72
2022/06/03 04:41:16;;;;;;;0.00;0.00;;;;;;;9.20;100.00;100938.47;5071659;28;20175;-75
2022/06/03 04:44:00;;;;;;;0.00;0.00;;;;;;;9.24;100.00;100935.97;5071944;28;20728;-75
2022/06/03 04:46:34;;;;;;;0.23;0.23;;;;;;;9.24;100.00;100938.72;5073487;28;20199;-73
2022/06/03 04:49:18;;;;;;;0.00;0.00;;;;;;;9.27;100.00;100940.06;5071646;28;20646;-74
2022/06/03 04:52:11;;;;;;;0.00;0.00;;;;;;;9.53;100.00;100950.34;5071872;28;20674;-74
2022/06/03 04:55:00;;;;;;;0.00;0.00;;;;;;;9.61;100.00;100945.38;5072070;28;20171;-75
2022/06/03 04:57:50;;;;;;;0.00;0.00;;;;;;;9.77;100.00;100946.78;5071289;28;20198;-78
2022/06/03 05:00:21;;;;;;;0.00;0.00;;;;;;;9.94;100.00;100943.56;5072025;28;20175;-75
2022/06/03 05:03:21;;;;;;;0.00;0.00;;;;;;;10.01;100.00;100944.81;5072005;28;20178;-73
2022/06/03 05:05:56;;;;;;;0.00;0.00;;;;;;;10.05;100.00;100945.84;5071492;28;20178;-71
2022/06/03 05:08:36;;;;;;;0.33;0.33;;;;;;;10.17;100.00;100950.06;5071145;28;20178;-72
2022/06/03 05:11:07;;;;;;;0.00;0.00;;;;;;;10.14;100.00;100952.28;5071484;28;20188;-72
2022/06/03 05:14:00;;;;;;;0.00;0.00;;;;;;;10.21;99.99;100949.19;5071298;28;20174;-63
2022/06/03 05:16:50;;;;;;;0.03;0.03;;;;;;;10.34;99.92;100940.25;5071054;28;20198;-75
2022/06/03 05:19:30;;;;;;;1.10;1.10;;;;;;;10.19;98.58;100945.09;5064375;28;20205;-75
2022/06/03 05:22:23;;;;;;;0.00;0.00;;;;;;;10.26;99.02;100943.63;5066888;28;20235;-73
2022/06/03 05:24:57;;;;;;;0.00;0.00;;;;;;;10.43;99.38;100943.13;5064089;28;20185;-71
2022/06/03 05:27:58;;;;;;;0.33;0.33;;;;;;;10.61;99.72;100938.72;5071299;28;20200;-72
2022/06/03 05:30:27;;;;;;;0.00;0.00;;;;;;;10.69;98.54;100936.09;5070949;28;20272;-74
2022/06/03 05:33:26;;;;;;;0.40;0.37;;;;;;;10.68;98.00;100933.66;5071615;28;20170;-73
2022/06/03 05:36:25;;;;;;;0.13;0.13;;;;;;;10.92;99.19;100939.00;5071638;28;20170;-73
2022/06/03 05:39:25;;;;;;;0.00;0.00;;;;;;;11.05;96.97;100932.72;5071150;28;20285;-72
2022/06/03 05:42:28;;;;;;;0.00;0.00;;;;;;;11.09;97.22;100936.47;5071506;28;20182;-72
2022/06/03 05:45:02;;;;;;;0.00;0.00;;;;;;;11.10;97.00;100946.28;5071286;28;20673;-73
2022/06/03 05:47:36;;;;;;;0.00;0.00;;;;;;;11.16;97.01;100945.09;5070597;28;20623;-72
2022/06/03 05:50:15;;;;;;;0.00;0.00;;;;;;;11.31;96.65;100939.34;5071648;28;20197;-73
2022/06/03 05:53:25;;;;;;;0.00;0.00;;;;;;;11.33;96.00;100947.25;5071538;28;20249;-77
2022/06/03 05:56:01;;;;;;;0.00;0.00;;;;;;;11.30;95.44;100945.13;4989526;28;20695;-73
2022/06/03 05:58:51;;;;;;;0.00;0.00;;;;;;;11.40;97.55;100942.16;4989026;28;20834;-75
2022/06/03 06:01:39;;;;;;;0.00;0.00;;;;;;;11.58;97.96;100943.19;5049920;28;20662;-72
2022/06/03 06:04:18;;;;;;;0.00;0.00;;;;;;;11.76;98.35;100936.75;5071343;28;20624;-73
2022/06/03 06:06:59;;;;;;;0.27;0.27;;;;;;;11.71;98.14;100934.09;5071044;28;20174;-72
2022/06/03 06:09:44;;;;;;;0.50;0.50;;;;;;;11.87;96.01;100948.34;5070920;28;20182;-72
2022/06/03 06:12:40;;;;;;;0.00;0.00;;;;;;;11.99;94.65;100934.09;5070815;28;20199;-72
2022/06/03 06:15:44;;;;;;;1.30;1.20;;;;;;;11.96;89.30;100945.66;5071175;28;20171;-75
2022/06/03 06:18:22;;;;;;;0.00;0.00;;;;;;;12.07;88.13;100945.13;5039656;28;20218;-73
2022/06/03 06:20:58;;;;;;;0.10;0.10;;;;;;;12.24;88.82;100940.91;5071208;28;20163;-73
2022/06/03 06:23:42;;;;;;;0.47;0.47;;;;;;;12.30;87.27;100945.16;5071452;28;20508;-72
2022/06/03 06:26:33;;;;;;;0.00;0.00;;;;;;;12.45;88.06;100945.59;5071091;28;20158;-73
2022/06/03 06:29:10;;;;;;;0.93;0.93;;;;;;;12.63;88.13;100943.78;5070698;28;20228;-82
2022/06/03 06:31:54;;;;;;;0.00;0.00;;;;;;;12.92;88.46;100937.00;5071349;28;20151;-73
2022/06/03 06:34:38;;;;;;;0.00;0.00;;;;;;;12.99;88.73;100943.66;5071041;28;20159;-73
2022/06/03 06:37:19;;;;;;;0.00;0.00;;;;;;;13.08;88.84;100940.97;5070575;28;20664;-73
2022/06/03 06:39:55;;;;;;;0.83;0.77;;;;;;;13.23;88.01;100937.03;5070461;28;20209;-72
2022/06/03 06:42:37;;;;;;;0.00;0.00;;;;;;;13.33;87.27;100940.31;5075259;28;20173;-76
2022/06/03 06:45:20;;;;;;;0.17;0.17;;;;;;;13.32;86.00;100924.16;5074834;28;20190;-81
2022/06/03 06:47:50;;;;;;;0.37;0.37;;;;;;;13.36;85.16;100919.63;5074603;28;20538;-77
2022/06/03 06:50:25;;;;;;;0.57;0.23;;;;;;;13.37;84.28;100924.81;5074981;28;20650;-75
2022/06/03 06:53:03;;;;;;;0.00;0.00;;;;;;;13.51;84.78;100919.19;5074554;28;20596;-74
2022/06/03 06:55:41;;;;;;;0.30;0.30;;;;;;;13.62;82.94;100923.25;5074575;28;20488;-75
2022/06/03 06:59:08;;;;;;;2.27;2.07;;;;;;;13.63;82.46;100911.16;5074119;28;20191;-73
2022/06/03 07:01:41;;;;;;;0.07;0.07;;;;;;;13.90;83.99;100914.75;5046299;28;20211;-72
2022/06/03 07:04:14;;;;;;;0.00;0.00;;;;;;;13.99;82.43;100929.28;5070800;28;20185;-75
2022/06/03 07:07:00;;;;;;;1.10;0.93;;;;;;;14.29;81.34;100927.50;5074084;28;20288;-71
2022/06/03 07:09:35;;;;;;;0.10;0.10;;;;;;;14.30;79.99;100929.91;5073953;28;20186;-72
2022/06/03 07:12:12;;;;;;;0.00;0.00;;;;;;;14.51;80.86;100924.59;5074237;28;20543;-78
2022/06/03 07:15:01;;;;;;;1.30;0.97;;;;;;;14.75;79.24;100935.06;5074305;28;20650;-72
2022/06/03 07:20:28;;;;;;;0.00;0.00;;;;;;;14.92;78.29;100925.16;5074279;28;20178;-77
2022/06/03 07:22:59;;;;;;;2.00;1.20;;;;;;;15.04;77.52;100917.81;5074241;28;20525;-73
2022/06/03 07:25:26;;;;;;;2.60;2.40;;;;;;;15.26;75.54;100911.25;5074112;28;20194;-73
2022/06/03 07:28:06;;;;;;;0.37;0.30;;;;;;;15.26;73.44;100916.75;5073376;28;20203;-72
2022/06/03 07:30:47;;;;;;;1.07;1.07;;;;;;;15.36;74.16;100910.06;5073556;28;20179;-73
2022/06/03 07:33:17;;;;;;;0.00;0.00;;;;;;;15.41;74.42;100907.13;5073910;28;20491;-73
2022/06/03 07:35:49;;;;;;;0.20;0.20;;;;;;;15.55;75.17;100902.19;5073839;28;20186;-72
2022/06/03 07:38:24;;;;;;;0.87;0.87;;;;;;;15.48;71.69;100901.91;5073327;28;20227;-72
2022/06/03 07:40:57;;;;;;;0.80;0.80;;;;;;;15.42;71.01;100909.53;5072974;28;20645;-72
2022/06/03 07:43:29;;;;;;;0.00;0.00;;;;;;;15.61;73.07;100911.06;5070206;28;20194;-72
2022/06/03 07:45:59;;;;;;;0.10;0.10;;;;;;;15.85;74.08;100897.47;5072516;28;20223;-71
2022/06/03 07:48:29;;;;;;;0.30;0.30;;;;;;;16.05;72.21;100899.41;5072584;28;20222;-72
2022/06/03 07:51:14;;;;;;;0.40;0.20;;;;;;;16.02;70.94;100889.06;5072951;28;20213;-72
2022/06/03 07:53:54;;;;;;;3.43;2.57;;;;;;;16.12;70.76;100878.78;5057735;28;20269;-72
2022/06/03 07:56:29;;;;;;;0.10;0.10;;;;;;;16.36;70.14;100881.63;5072984;28;20181;-73
2022/06/03 07:58:59;;;;;;;0.20;0.20;;;;;;;16.50;68.77;100868.34;5072383;28;20218;-72
2022/06/03 08:01:31;;;;;;;2.47;2.27;;;;;;;16.53;65.82;100873.19;5072909;28;20178;-72
2022/06/03 08:03:57;;;;;;;0.50;0.50;;;;;;;16.75;63.94;100863.69;5072719;28;20539;-72
2022/06/03 08:10:56;;;;;;;0.20;0.20;;;;;;;16.80;62.85;100866.25;5071464;28;20170;-74
2022/06/03 08:12:06;;;;;;;1.03;1.03;;;;;;;17.03;62.85;100863.84;5052476;28;20544;-72
2022/06/03 08:14:32;;;;;;;0.93;0.93;;;;;;;17.07;64.79;100869.47;5052613;28;20171;-74
2022/06/03 08:16:57;;;;;;;0.77;0.77;;;;;;;17.27;62.37;100870.53;5052181;28;20168;-72
2022/06/03 08:19:27;;;;;;;0.40;0.40;;;;;;;17.36;61.24;100865.66;5052146;28;20209;-74
2022/06/03 08:21:55;;;;;;;0.63;0.63;;;;;;;17.32;58.58;100870.28;5051141;28;20195;-73
2022/06/03 08:24:25;;;;;;;0.30;0.30;;;;;;;17.41;57.84;100857.97;5052408;28;20174;-73
2022/06/03 08:26:55;;;;;;;0.00;0.00;;;;;;;17.55;59.44;100857.59;5052159;28;20651;-73
2022/06/03 08:29:42;;;;;;;18.23;1.80;;;;;;;17.73;59.66;100858.16;5052109;28;20180;-72
2022/06/03 08:32:14;;;;;;;0.00;0.00;;;;;;;17.92;60.44;100863.84;5052183;28;20178;-73
2022/06/03 08:34:45;;;;;;;1.70;1.60;;;;;;;17.64;60.52;100871.28;5052298;28;20190;-73
2022/06/03 08:37:15;;;;;;;0.30;0.30;;;;;;;17.88;60.11;100867.69;5067941;28;20212;-73
2022/06/03 08:39:43;;;;;;;0.83;0.40;;;;;;;18.08;58.88;100873.03;5071660;28;20187;-73
2022/06/03 08:42:16;;;;;;;0.80;0.80;;;;;;;18.29;58.17;100872.81;5071818;28;20540;-73
2022/06/03 08:45:10;;;;;;;0.00;0.00;;;;;;;18.34;58.71;100863.47;5070856;28;20201;-72
2022/06/03 08:47:58;;;;;;;0.40;0.40;;;;;;;18.13;56.23;100866.44;5071822;28;20181;-73
2022/06/03 08:50:36;;;;;;;0.40;0.40;;;;;;;18.28;56.40;100867.66;5072382;28;20202;-72
2022/06/03 08:53:01;;;;;;;0.53;0.33;;;;;;;18.18;55.29;100857.88;5072252;28;20253;-73
2022/06/03 08:55:35;;;;;;;0.20;0.20;;;;;;;18.17;55.12;100849.94;5072279;28;20261;-72
2022/06/03 08:58:28;;;;;;;0.00;0.00;;;;;;;18.16;54.89;100853.88;5071232;28;20244;-72
2022/06/03 09:01:13;;;;;;;1.37;1.27;;;;;;;18.33;56.00;100848.81;5050072;28;20186;-72
2022/06/03 09:03:53;;;;;;;0.30;0.30;;;;;;;18.22;55.24;100849.69;5071503;28;20170;-72
2022/06/03 09:06:38;;;;;;;0.63;0.63;;;;;;;18.21;54.33;100837.81;5071946;28;20186;-73
2022/06/03 09:09:26;;;;;;;1.10;1.10;;;;;;;18.61;54.45;100846.00;5071060;28;20174;-72
2022/06/03 09:12:03;;;;;;;0.20;0.20;;;;;;;18.46;52.83;100844.03;5050575;28;20187;-72
2022/06/03 09:14:29;;;;;;;0.83;0.43;;;;;;;18.65;54.25;100835.84;5071400;28;20556;-72
2022/06/03 09:17:03;;;;;;;0.40;0.40;;;;;;;18.87;54.35;100834.44;5071169;28;20181;-72
2022/06/03 09:19:38;;;;;;;0.30;0.30;;;;;;;18.69;52.68;100835.97;5071063;28;20187;-72
2022/06/03 09:22:11;;;;;;;0.03;0.03;;;;;;;18.93;55.80;100838.53;5071377;28;20168;-72
2022/06/03 09:24:40;;;;;;;0.00;0.00;;;;;;;18.92;53.96;100839.69;5071407;28;20207;-73
2022/06/03 09:27:06;;;;;;;0.00;0.00;;;;;;;19.15;54.67;100837.09;5070984;28;20163;-73
2022/06/03 09:29:33;;;;;;;0.70;0.47;;;;;;;19.15;53.25;100830.75;5070853;28;20626;-72
2022/06/03 09:32:02;;;;;;;0.50;0.50;;;;;;;19.11;52.80;100840.97;5071038;28;20729;-75
2022/06/03 09:34:49;;;;;;;0.10;0.10;;;;;;;19.05;53.93;100832.09;5066297;28;20271;-73
2022/06/03 09:37:21;;;;;;;0.10;0.10;;;;;;;19.24;54.48;100834.94;5069102;28;20295;-73
2022/06/03 09:39:49;;;;;;;0.80;0.80;;;;;;;19.22;53.12;100826.16;5070918;28;20166;-73
2022/06/03 09:42:17;;;;;;;0.00;0.00;;;;;;;19.12;52.69;100831.47;5071108;28;20190;-73
2022/06/03 09:44:45;;;;;;;0.23;0.13;;;;;;;19.27;53.24;100827.88;5068676;28;20195;-74
2022/06/03 09:47:11;;;;;;;0.10;0.10;;;;;;;19.43;52.62;100827.84;5067467;28;20608;-72
2022/06/03 09:49:37;;;;;;;0.10;0.10;;;;;;;19.66;52.09;100834.31;5070387;28;20254;-73
2022/06/03 09:52:08;;;;;;;0.00;0.00;;;;;;;19.76;53.74;100830.97;5070851;28;20170;-72
2022/06/03 09:54:37;;;;;;;0.10;0.10;;;;;;;19.80;52.46;100826.28;5070882;28;20171;-73
2022/06/03 09:57:09;;;;;;;0.20;0.20;;;;;;;19.79;51.38;100826.66;5070594;28;20714;-72
2022/06/03 09:59:37;;;;;;;0.40;0.40;;;;;;;19.63;50.40;100817.59;5070247;28;20285;-73
2022/06/03 10:02:05;;;;;;;0.20;0.20;;;;;;;19.72;51.40;100804.34;5071043;28;20181;-72
2022/06/03 10:04:30;;;;;;;0.67;0.67;;;;;;;19.87;51.02;100812.59;5070788;28;20245;-72
2022/06/03 10:07:00;;;;;;;0.00;0.00;;;;;;;19.98;53.39;100810.03;5070848;28;20166;-72
2022/06/03 10:18:01;;;;;;;0.83;0.73;;;;;;;20.07;50.75;100810.59;5076538;28;20197;-72
2022/06/03 10:20:27;;;;;;;0.60;0.57;;;;;;;20.12;51.26;100803.97;5077155;28;20209;-74
2022/06/03 10:22:54;;;;;;;17.53;4.23;;;;;;;20.02;51.11;100801.78;5076886;28;20626;-73
2022/06/03 10:25:19;;;;;;;0.10;0.10;;;;;;;20.25;51.47;100804.56;5077258;28;20228;-73
2022/06/03 10:27:45;;;;;;;0.47;0.43;;;;;;;20.39;51.00;100796.50;5067547;28;20228;-73
2022/06/03 10:30:13;;;;;;;0.33;0.33;;;;;;;20.10;50.63;100789.63;5057230;28;20167;-72
2022/06/03 10:32:39;;;;;;;0.70;0.27;;;;;;;20.14;50.76;100798.84;5056675;28;20182;-73
2022/06/03 10:35:16;;;;;;;0.20;0.20;;;;;;;20.10;51.54;100787.66;5057070;28;20171;-72
2022/06/03 10:37:54;;;;;;;0.00;0.00;;;;;;;20.16;51.92;100786.19;5056911;28;20187;-73
2022/06/03 10:40:21;;;;;;;0.10;0.10;;;;;;;20.34;52.90;100788.50;5057379;28;20190;-72
2022/06/03 10:42:48;;;;;;;0.00;0.00;;;;;;;20.37;51.29;100769.13;5056978;28;20170;-73
2022/06/03 10:45:14;;;;;;;0.40;0.40;;;;;;;20.43;49.98;100766.88;5071284;28;20195;-73
2022/06/03 10:47:43;;;;;;;0.23;0.23;;;;;;;20.63;50.33;100773.97;5067809;28;20194;-73
2022/06/03 10:50:38;;;;;;;0.20;0.20;;;;;;;20.57;50.24;100775.47;5076721;28;20174;-73
2022/06/03 11:01:41;;;;;;;0.20;0.20;;;;;;;20.56;49.67;100765.53;5077644;28;20248;-73
2022/06/03 11:04:07;;;;;;;0.03;0.03;;;;;;;20.70;49.84;100751.88;5076885;28;20155;-73
2022/06/03 11:06:38;;;;;;;1.03;0.67;;;;;;;20.83;48.53;100763.59;5076628;28;20178;-73
2022/06/03 11:09:07;;;;;;;0.53;0.53;;;;;;;20.75;48.59;100754.34;5076388;28;20248;-73
2022/06/03 11:11:32;;;;;;;0.00;0.00;;;;;;;20.87;49.16;100749.75;5075333;28;20187;-72
2022/06/03 11:13:57;;;;;;;0.10;0.10;;;;;;;21.02;49.54;100740.44;5075540;28;20546;-73
2022/06/03 11:16:26;;;;;;;0.10;0.00;;;;;;;20.83;49.50;100741.38;5075428;28;20190;-73
2022/06/03 11:18:52;;;;;;;0.67;0.67;;;;;;;20.69;48.61;100735.59;5076025;28;20324;-73
2022/06/03 11:21:27;;;;;;;0.60;0.60;;;;;;;20.83;49.03;100732.22;5076717;28;20261;-73
2022/06/03 11:23:55;;;;;;;0.30;0.27;;;;;;;20.61;48.87;100737.44;5076687;28;20657;-73
2022/06/03 11:26:26;;;;;;;0.20;0.17;;;;;;;20.71;48.59;100733.25;5075943;28;20202;-73
2022/06/03 11:29:00;;;;;;;0.00;0.00;;;;;;;21.03;49.01;100725.38;5072897;28;20163;-73
2022/06/03 11:31:34;;;;;;;0.20;0.20;;;;;;;21.14;48.26;100728.31;5072374;28;20186;-73
2022/06/03 11:34:14;;;;;;;0.60;0.60;;;;;;;20.87;48.16;100716.41;5065242;28;20324;-72
2022/06/03 11:36:49;;;;;;;0.60;0.60;;;;;;;21.01;48.83;100720.22;5061115;28;20809;-73
2022/06/03 11:39:38;;;;;;;0.30;0.30;;;;;;;20.93;48.04;100717.69;5053298;28;20213;-73
2022/06/03 11:42:29;;;;;;;0.70;0.37;;;;;;;21.11;48.03;100707.63;5073120;28;20650;-74
2022/06/03 11:45:10;;;;;;;0.60;0.60;;;;;;;21.30;47.75;100699.19;5053944;28;20199;-73
2022/06/03 11:47:41;;;;;;;0.40;0.40;;;;;;;21.09;47.96;100687.75;5076338;28;20182;-73
2022/06/03 11:50:09;;;;;;;0.30;0.30;;;;;;;21.37;48.46;100704.03;5075680;28;20251;-71
2022/06/03 11:52:35;;;;;;;0.10;0.10;;;;;;;21.41;48.63;100704.88;5073944;28;20168;-71
2022/06/03 11:55:01;;;;;;;0.30;0.30;;;;;;;21.21;47.59;100695.84;5073679;28;20206;-72
2022/06/03 11:57:27;;;;;;;0.20;0.20;;;;;;;21.14;48.05;100692.19;5073129;28;20182;-72
2022/06/03 12:00:04;;;;;;;0.30;0.30;;;;;;;21.04;48.16;100696.41;5073481;28;20637;-72
2022/06/03 12:02:36;;;;;;;0.10;0.10;;;;;;;21.46;48.96;100689.84;5072925;28;20647;-72
2022/06/03 12:05:12;;;;;;;0.00;0.00;;;;;;;21.44;49.40;100694.97;5073277;28;20183;-72
2022/06/03 12:08:03;;;;;;;0.00;0.00;;;;;;;21.27;49.06;100691.59;5072980;28;20172;-72
2022/06/03 12:10:56;;;;;;;0.00;0.00;;;;;;;21.28;50.16;100686.84;5070665;28;20188;-72
2022/06/03 12:13:30;;;;;;;0.10;0.10;;;;;;;21.13;48.75;100679.47;5073155;28;20597;-72
2022/06/03 12:15:56;;;;;;;0.20;0.20;;;;;;;21.36;48.36;100680.97;5070430;28;20237;-72
2022/06/03 12:18:37;;;;;;;0.00;0.00;;;;;;;21.58;49.62;100682.03;5071325;28;20208;-72
2022/06/03 12:21:30;;;;;;;0.30;0.30;;;;;;;21.81;48.56;100667.97;5071977;28;20178;-72
2022/06/03 12:23:55;;;;;;;0.10;0.10;;;;;;;21.44;47.62;100659.63;5056321;28;20195;-71
2022/06/03 12:26:31;;;;;;;0.20;0.20;;;;;;;21.37;48.44;100660.34;5072152;28;20472;-72
2022/06/03 12:29:14;;;;;;;1.53;1.53;;;;;;;21.21;48.73;100658.91;5071669;28;20213;-72
2022/06/03 12:31:45;;;;;;;1.70;1.70;;;;;;;21.02;49.24;100654.31;5068734;28;20266;-72
2022/06/03 12:34:21;;;;;;;0.10;0.10;;;;;;;21.02;49.66;100654.31;5072553;28;20267;-72
2022/06/03 12:36:47;;;;;;;0.50;0.50;;;;;;;21.10;49.00;100647.66;5072091;28;20169;-72
2022/06/03 12:39:18;;;;;;;0.00;0.00;;;;;;;21.64;49.58;100651.91;5071742;28;20199;-72
2022/06/03 12:41:44;;;;;;;1.83;1.73;;;;;;;22.01;47.79;100649.09;5072394;28;20192;-72
2022/06/03 12:45:04;;;;;;;0.10;0.10;;;;;;;22.01;48.16;100651.88;5072013;28;20670;-72
2022/06/03 12:47:35;;;;;;;0.20;0.20;;;;;;;21.92;48.01;100632.72;5009143;28;20184;-71
2022/06/03 12:50:04;;;;;;;0.87;0.87;;;;;;;21.82;47.00;100632.59;5060808;28;20189;-71